createdAt,value
2023-03-29T00:00:40.978Z,791.00
2023-03-29T00:01:40.036Z,794.00
2023-03-29T00:02:41.265Z,796.00
2023-03-29T00:03:41.253Z,795.00
2023-03-29T00:04:41.287Z,792.00
2023-03-29T00:05:41.274Z,790.00
2023-03-29T00:06:41.332Z,789.00
2023-03-29T00:07:40.412Z,791.00
2023-03-29T00:08:41.474Z,791.00
2023-03-29T00:09:41.502Z,791.00
2023-03-29T00:10:40.563Z,792.00
2023-03-29T00:11:41.613Z,793.00
2023-03-29T00:12:40.693Z,794.00
2023-03-29T00:13:41.739Z,792.00
2023-03-29T00:14:41.811Z,792.00
2023-03-29T00:15:40.880Z,791.00
2023-03-29T00:16:40.953Z,790.00
2023-03-29T00:17:42.004Z,792.00
2023-03-29T00:18:42.086Z,791.00
2023-03-29T00:19:42.134Z,790.00
2023-03-29T00:20:42.176Z,792.00
2023-03-29T00:21:42.273Z,790.00
2023-03-29T00:22:42.383Z,788.00
2023-03-29T00:23:42.438Z,789.00
2023-03-29T00:24:42.443Z,790.00
2023-03-29T00:25:42.477Z,788.00
2023-03-29T00:26:42.578Z,789.00
2023-03-29T00:27:42.623Z,789.00
2023-03-29T00:28:41.671Z,790.00
2023-03-29T00:29:42.718Z,790.00
2023-03-29T00:30:42.783Z,787.00
2023-03-29T00:31:42.863Z,789.00
2023-03-29T00:32:41.993Z,790.00
2023-03-29T00:33:42.977Z,788.00
2023-03-29T00:34:43.037Z,786.00
2023-03-29T00:35:43.129Z,786.00
2023-03-29T00:36:43.146Z,785.00
2023-03-29T00:37:43.229Z,786.00
2023-03-29T00:38:43.280Z,782.00
2023-03-29T00:39:42.345Z,780.00
2023-03-29T00:40:43.434Z,779.00
2023-03-29T00:41:43.437Z,781.00
2023-03-29T00:42:43.494Z,786.00
2023-03-29T00:43:42.555Z,784.00
2023-03-29T00:44:42.615Z,784.00
2023-03-29T00:45:43.671Z,783.00
2023-03-29T00:46:43.812Z,784.00
2023-03-29T00:47:43.823Z,780.00
2023-03-29T00:48:43.838Z,779.00
2023-03-29T00:49:43.901Z,781.00
2023-03-29T00:50:43.953Z,781.00
2023-03-29T00:51:44.029Z,782.00
2023-03-29T00:52:43.087Z,785.00
2023-03-29T00:53:44.127Z,784.00
2023-03-29T00:54:43.183Z,786.00
2023-03-29T00:55:44.214Z,784.00
2023-03-29T00:56:44.335Z,782.00
2023-03-29T00:57:44.343Z,783.00
2023-03-29T00:58:44.385Z,784.00
2023-03-29T00:59:44.413Z,788.00
2023-03-29T01:00:44.468Z,788.00
2023-03-29T01:01:44.558Z,787.00
2023-03-29T01:02:44.634Z,785.00
2023-03-29T01:03:43.826Z,786.00
2023-03-29T01:04:44.704Z,786.00
2023-03-29T01:05:44.748Z,784.00
2023-03-29T01:06:44.845Z,786.00
2023-03-29T01:07:44.860Z,787.00
2023-03-29T01:08:44.917Z,791.00
2023-03-29T01:09:44.942Z,796.00
2023-03-29T01:10:44.998Z,795.00
2023-03-29T01:11:45.044Z,793.00
2023-03-29T01:12:45.178Z,791.00
2023-03-29T01:13:45.169Z,790.00
2023-03-29T01:14:44.208Z,787.00
2023-03-29T01:15:45.269Z,783.00
2023-03-29T01:16:45.361Z,780.00
2023-03-29T01:17:45.416Z,779.00
2023-03-29T01:18:45.433Z,779.00
2023-03-29T01:19:45.434Z,780.00
2023-03-29T01:20:45.514Z,779.00
2023-03-29T01:21:45.503Z,777.00
2023-03-29T01:22:45.537Z,779.00
2023-03-29T01:23:45.586Z,778.00
2023-03-29T01:24:45.712Z,781.00
2023-03-29T01:25:45.629Z,783.00
2023-03-29T01:26:44.677Z,784.00
2023-03-29T01:27:45.707Z,784.00
2023-03-29T01:28:45.779Z,782.00
2023-03-29T01:29:45.790Z,781.00
2023-03-29T01:30:45.850Z,776.00
2023-03-29T01:31:46.019Z,776.00
2023-03-29T01:32:45.949Z,775.00
2023-03-29T01:33:44.954Z,774.00
2023-03-29T01:34:45.957Z,774.00
2023-03-29T01:35:45.046Z,778.00
2023-03-29T01:36:45.012Z,778.00
2023-03-29T01:37:46.059Z,776.00
2023-03-29T01:38:45.098Z,778.00
2023-03-29T01:39:46.109Z,776.00
2023-03-29T01:40:46.137Z,777.00
2023-03-29T01:41:46.160Z,778.00
2023-03-29T01:42:46.180Z,776.00
2023-03-29T01:43:46.389Z,778.00
2023-03-29T01:44:46.264Z,779.00
2023-03-29T01:45:46.304Z,776.00
2023-03-29T01:46:46.329Z,776.00
2023-03-29T01:47:46.425Z,776.00
2023-03-29T01:48:46.390Z,775.00
2023-03-29T01:49:46.403Z,775.00
2023-03-29T01:50:46.422Z,776.00
2023-03-29T01:51:46.450Z,777.00
2023-03-29T01:52:46.476Z,776.00
2023-03-29T01:53:46.528Z,771.00
2023-03-29T01:54:46.535Z,773.00
2023-03-29T01:55:45.549Z,774.00
2023-03-29T01:56:46.607Z,771.00
2023-03-29T01:57:45.620Z,771.00
2023-03-29T01:58:45.647Z,774.00
2023-03-29T01:59:45.680Z,775.00
2023-03-29T02:00:45.735Z,775.00
2023-03-29T02:01:46.804Z,775.00
2023-03-29T02:02:45.915Z,775.00
2023-03-29T02:03:46.924Z,775.00
2023-03-29T02:04:46.951Z,774.00
2023-03-29T02:05:47.020Z,773.00
2023-03-29T02:06:47.071Z,771.00
2023-03-29T02:07:46.132Z,770.00
2023-03-29T02:08:47.185Z,767.00
2023-03-29T02:09:46.254Z,768.00
2023-03-29T02:10:47.302Z,769.00
2023-03-29T02:11:47.374Z,769.00
2023-03-29T02:12:47.431Z,771.00
2023-03-29T02:13:47.460Z,769.00
2023-03-29T02:14:47.528Z,772.00
2023-03-29T02:15:47.634Z,774.00
2023-03-29T02:16:46.624Z,777.00
2023-03-29T02:17:46.768Z,779.00
2023-03-29T02:18:47.734Z,779.00
2023-03-29T02:19:47.771Z,781.00
2023-03-29T02:20:47.798Z,785.00
2023-03-29T02:21:46.857Z,785.00
2023-03-29T02:22:47.899Z,785.00
2023-03-29T02:23:47.908Z,785.00
2023-03-29T02:24:46.975Z,784.00
2023-03-29T02:25:46.996Z,780.00
2023-03-29T02:26:48.045Z,780.00
2023-03-29T02:27:48.079Z,781.00
2023-03-29T02:28:48.098Z,779.00
2023-03-29T02:29:48.135Z,776.00
2023-03-29T02:30:47.333Z,773.00
2023-03-29T02:31:48.235Z,769.00
2023-03-29T02:32:48.257Z,769.00
2023-03-29T02:33:47.253Z,769.00
2023-03-29T02:34:48.291Z,771.00
2023-03-29T02:35:47.325Z,772.00
2023-03-29T02:36:48.326Z,772.00
2023-03-29T02:37:47.366Z,773.00
2023-03-29T02:38:47.387Z,773.00
2023-03-29T02:39:48.420Z,773.00
2023-03-29T02:40:48.418Z,774.00
2023-03-29T02:41:48.431Z,772.00
2023-03-29T02:42:48.448Z,773.00
2023-03-29T02:43:48.489Z,776.00
2023-03-29T02:44:47.497Z,777.00
2023-03-29T02:45:48.523Z,777.00
2023-03-29T02:46:48.575Z,774.00
2023-03-29T02:47:48.630Z,773.00
2023-03-29T02:48:48.585Z,776.00
2023-03-29T02:49:48.606Z,775.00
2023-03-29T02:50:48.617Z,774.00
2023-03-29T02:51:47.636Z,772.00
2023-03-29T02:52:48.646Z,771.00
2023-03-29T02:53:48.671Z,772.00
2023-03-29T02:54:48.690Z,772.00
2023-03-29T02:55:48.707Z,772.00
2023-03-29T02:56:48.750Z,770.00
2023-03-29T02:57:48.723Z,766.00
2023-03-29T02:58:48.751Z,764.00
2023-03-29T02:59:48.890Z,766.00
2023-03-29T03:00:48.861Z,769.00
2023-03-29T03:01:48.845Z,767.00
2023-03-29T03:02:48.920Z,768.00
2023-03-29T03:03:48.969Z,767.00
2023-03-29T03:04:48.855Z,766.00
2023-03-29T03:05:47.874Z,765.00
2023-03-29T03:06:47.875Z,767.00
2023-03-29T03:07:48.871Z,771.00
2023-03-29T03:08:48.903Z,772.00
2023-03-29T03:09:48.940Z,770.00
2023-03-29T03:10:47.904Z,768.00
2023-03-29T03:11:48.930Z,767.00
2023-03-29T03:12:48.946Z,767.00
2023-03-29T03:13:47.942Z,765.00
2023-03-29T03:14:48.977Z,762.00
2023-03-29T03:15:49.109Z,761.00
2023-03-29T03:16:48.015Z,763.00
2023-03-29T03:17:49.044Z,761.00
2023-03-29T03:18:48.023Z,762.00
2023-03-29T03:19:49.085Z,764.00
2023-03-29T03:20:49.046Z,763.00
2023-03-29T03:21:49.033Z,764.00
2023-03-29T03:22:49.137Z,766.00
2023-03-29T03:23:49.049Z,767.00
2023-03-29T03:24:48.061Z,765.00
2023-03-29T03:25:49.101Z,765.00
2023-03-29T03:26:49.090Z,765.00
2023-03-29T03:27:49.131Z,764.00
2023-03-29T03:28:48.113Z,763.00
2023-03-29T03:29:48.123Z,762.00
2023-03-29T03:30:49.156Z,762.00
2023-03-29T03:31:48.187Z,760.00
2023-03-29T03:32:49.193Z,757.00
2023-03-29T03:33:49.186Z,756.00
2023-03-29T03:34:49.201Z,757.00
2023-03-29T03:35:49.263Z,759.00
2023-03-29T03:36:49.214Z,758.00
2023-03-29T03:37:49.235Z,760.00
2023-03-29T03:38:49.240Z,761.00
2023-03-29T03:39:49.261Z,762.00
2023-03-29T03:40:49.271Z,763.00
2023-03-29T03:41:48.300Z,761.00
2023-03-29T03:42:49.315Z,760.00
2023-03-29T03:43:49.311Z,757.00
2023-03-29T03:44:49.342Z,757.00
2023-03-29T03:45:49.397Z,758.00
2023-03-29T03:46:49.350Z,757.00
2023-03-29T03:47:49.442Z,756.00
2023-03-29T03:48:49.369Z,757.00
2023-03-29T03:49:49.399Z,756.00
2023-03-29T03:50:49.395Z,758.00
2023-03-29T03:51:52.262Z,761.00
2023-03-29T03:52:49.400Z,761.00
2023-03-29T03:53:49.401Z,761.00
2023-03-29T03:54:48.388Z,759.00
2023-03-29T03:55:49.372Z,759.00
2023-03-29T03:56:49.377Z,759.00
2023-03-29T03:57:49.360Z,758.00
2023-03-29T03:58:49.348Z,760.00
2023-03-29T03:59:49.345Z,762.00
2023-03-29T04:00:49.365Z,764.00
2023-03-29T04:01:49.326Z,763.00
2023-03-29T04:02:49.421Z,762.00
2023-03-29T04:03:49.330Z,763.00
2023-03-29T04:04:49.310Z,766.00
2023-03-29T04:05:49.310Z,763.00
2023-03-29T04:06:49.291Z,762.00
2023-03-29T04:07:49.320Z,761.00
2023-03-29T04:08:48.294Z,760.00
2023-03-29T04:09:49.269Z,757.00
2023-03-29T04:10:48.278Z,757.00
2023-03-29T04:11:48.267Z,759.00
2023-03-29T04:12:49.267Z,758.00
2023-03-29T04:13:48.239Z,759.00
2023-03-29T04:14:49.252Z,758.00
2023-03-29T04:15:48.279Z,760.00
2023-03-29T04:16:49.262Z,761.00
2023-03-29T04:17:49.269Z,761.00
2023-03-29T04:18:49.272Z,760.00
2023-03-29T04:19:49.218Z,761.00
2023-03-29T04:20:49.200Z,760.00
2023-03-29T04:21:49.193Z,760.00
2023-03-29T04:22:49.197Z,759.00
2023-03-29T04:23:49.215Z,759.00
2023-03-29T04:24:49.176Z,758.00
2023-03-29T04:25:49.171Z,759.00
2023-03-29T04:26:48.159Z,759.00
2023-03-29T04:27:49.140Z,760.00
2023-03-29T04:28:49.155Z,758.00
2023-03-29T04:29:48.139Z,759.00
2023-03-29T04:30:49.211Z,755.00
2023-03-29T04:31:48.133Z,752.00
2023-03-29T04:32:49.148Z,751.00
2023-03-29T04:33:48.110Z,752.00
2023-03-29T04:34:48.088Z,755.00
2023-03-29T04:35:49.136Z,757.00
2023-03-29T04:36:49.073Z,759.00
2023-03-29T04:37:49.085Z,760.00
2023-03-29T04:38:49.080Z,760.00
2023-03-29T04:39:49.095Z,758.00
2023-03-29T04:40:49.080Z,757.00
2023-03-29T04:41:49.054Z,758.00
2023-03-29T04:42:49.036Z,757.00
2023-03-29T04:43:49.027Z,759.00
2023-03-29T04:44:49.051Z,758.00
2023-03-29T04:45:49.041Z,759.00
2023-03-29T04:46:49.052Z,760.00
2023-03-29T04:47:49.081Z,761.00
2023-03-29T04:48:49.071Z,759.00
2023-03-29T04:49:49.074Z,759.00
2023-03-29T04:50:48.106Z,757.00
2023-03-29T04:51:49.142Z,759.00
2023-03-29T04:52:49.211Z,759.00
2023-03-29T04:53:49.169Z,760.00
2023-03-29T04:54:49.221Z,760.00
2023-03-29T04:55:48.254Z,757.00
2023-03-29T04:56:49.294Z,755.00
2023-03-29T04:57:49.271Z,755.00
2023-03-29T04:58:49.291Z,755.00
2023-03-29T04:59:49.292Z,755.00
2023-03-29T05:00:49.313Z,755.00
2023-03-29T05:01:49.381Z,757.00
2023-03-29T05:02:49.388Z,759.00
2023-03-29T05:03:49.430Z,760.00
2023-03-29T05:05:48.481Z,757.00
2023-03-29T05:06:49.498Z,756.00
2023-03-29T05:07:29.771Z,485.00
2023-03-29T05:08:30.789Z,483.00
2023-03-29T05:09:31.634Z,481.00
2023-03-29T05:10:30.712Z,478.00
2023-03-29T05:11:30.779Z,481.00
2023-03-29T05:12:30.807Z,484.00
2023-03-29T05:13:30.744Z,487.00
2023-03-29T05:13:48.639Z,756.00
2023-03-29T05:14:30.696Z,484.00
2023-03-29T05:14:48.627Z,757.00
2023-03-29T05:15:49.811Z,757.00
2023-03-29T05:16:49.677Z,757.00
2023-03-29T05:19:29.645Z,483.00
2023-03-29T05:20:30.784Z,479.00
2023-03-29T05:21:29.671Z,477.00
2023-03-29T05:22:30.683Z,479.00
2023-03-29T05:23:30.627Z,479.00
2023-03-29T05:23:48.801Z,764.00
2023-03-29T05:24:49.828Z,763.00
2023-03-29T05:25:49.840Z,762.00
2023-03-29T05:26:49.958Z,761.00
2023-03-29T05:27:29.635Z,480.00
2023-03-29T05:27:50.142Z,761.00
2023-03-29T05:28:50.395Z,757.00
2023-03-29T05:29:49.934Z,760.00
2023-03-29T05:30:49.946Z,762.00
2023-03-29T05:31:50.080Z,763.00
2023-03-29T05:32:29.729Z,475.00
2023-03-29T05:32:50.073Z,766.00
2023-03-29T05:33:30.539Z,477.00
2023-03-29T05:36:29.621Z,479.00
2023-03-29T05:36:49.077Z,787.00
2023-03-29T05:37:30.563Z,480.00
2023-03-29T05:37:50.118Z,791.00
2023-03-29T05:40:29.523Z,481.00
2023-03-29T05:40:49.136Z,804.00
2023-03-29T05:41:30.550Z,480.00
2023-03-29T05:42:30.567Z,478.00
2023-03-29T05:43:30.495Z,477.00
2023-03-29T05:43:50.014Z,814.00
2023-03-29T05:44:51.558Z,819.00
2023-03-29T05:45:29.846Z,480.00
2023-03-29T05:45:50.167Z,825.00
2023-03-29T05:46:30.540Z,480.00
2023-03-29T05:46:50.500Z,831.00
2023-03-29T05:47:30.607Z,481.00
2023-03-29T05:48:49.147Z,872.00
2023-03-29T05:49:50.216Z,897.00
2023-03-29T05:50:29.560Z,483.00
2023-03-29T05:50:50.124Z,914.00
2023-03-29T05:51:50.489Z,938.00
2023-03-29T05:52:48.884Z,485.00
2023-03-29T05:53:49.102Z,955.00
2023-03-29T05:53:50.496Z,484.00
2023-03-29T05:54:50.076Z,974.00
2023-03-29T05:58:48.652Z,485.00
2023-03-29T05:59:48.580Z,489.00
2023-03-29T05:59:49.068Z,1057.00
2023-03-29T06:00:50.084Z,1072.00
2023-03-29T06:01:50.506Z,1083.00
2023-03-29T06:04:46.668Z,481.00
2023-03-29T06:04:49.052Z,1168.00
2023-03-29T06:05:49.581Z,481.00
2023-03-29T06:06:48.995Z,1187.00
2023-03-29T06:07:50.002Z,1203.00
2023-03-29T06:11:46.513Z,487.00
2023-03-29T06:12:48.965Z,1321.00
2023-03-29T06:13:49.067Z,1345.00
2023-03-29T06:14:49.959Z,1362.00
2023-03-29T06:16:46.074Z,470.00
2023-03-29T06:17:48.943Z,1420.00
2023-03-29T06:18:49.933Z,1438.00
2023-03-29T06:20:48.972Z,1483.00
2023-03-29T06:22:49.051Z,1533.00
2023-03-29T06:23:50.035Z,1549.00
2023-03-29T06:24:49.068Z,1687.00
2023-03-29T06:25:50.109Z,1745.00
2023-03-29T06:26:50.151Z,1789.00
2023-03-29T06:27:50.171Z,1785.00
2023-03-29T06:28:52.195Z,1808.00
2023-03-29T06:29:50.177Z,1813.00
2023-03-29T06:31:49.218Z,1781.00
2023-03-29T06:34:49.142Z,1804.00
2023-03-29T06:36:49.110Z,1839.00
2023-03-29T06:37:09.094Z,465.00
2023-03-29T06:37:50.116Z,1864.00
2023-03-29T06:38:50.103Z,1877.00
2023-03-29T06:42:49.088Z,1964.00
2023-03-29T06:43:49.063Z,1985.00
2023-03-29T06:44:50.099Z,1999.00
2023-03-29T06:45:49.076Z,2027.00
2023-03-29T06:46:50.096Z,2053.00
2023-03-29T06:48:49.025Z,2098.00
2023-03-29T06:49:48.996Z,2132.00
2023-03-29T06:50:50.027Z,2154.00
2023-03-29T06:51:50.016Z,2166.00
2023-03-29T06:52:50.035Z,2184.00
2023-03-29T06:54:08.608Z,472.00
2023-03-29T06:55:48.998Z,1291.00
2023-03-29T06:56:50.070Z,1291.00
2023-03-29T06:57:49.968Z,1305.00
2023-03-29T06:58:49.988Z,1557.00
2023-03-29T06:59:49.960Z,1754.00
2023-03-29T07:00:06.385Z,463.00
2023-03-29T07:01:06.384Z,463.00
2023-03-29T07:03:48.944Z,1835.00
2023-03-29T07:04:49.961Z,1854.00
2023-03-29T07:05:48.927Z,1865.00
2023-03-29T07:08:48.893Z,2108.00
2023-03-29T07:10:48.878Z,2149.00
2023-03-29T07:11:49.864Z,2160.00
2023-03-29T07:15:48.871Z,2142.00
2023-03-29T07:16:49.858Z,2135.00
2023-03-29T07:17:49.879Z,2134.00
2023-03-29T07:18:48.805Z,2133.00
2023-03-29T07:19:49.805Z,2134.00
2023-03-29T07:23:48.799Z,2155.00
2023-03-29T07:24:48.795Z,2162.00
2023-03-29T07:25:49.827Z,2165.00
2023-03-29T07:27:03.181Z,2167.00
2023-03-29T07:30:48.826Z,2175.00
2023-03-29T07:31:49.838Z,2173.00
2023-03-29T07:32:49.927Z,2185.00
2023-03-29T07:34:48.782Z,2198.00
2023-03-29T07:35:49.812Z,2201.00
2023-03-29T07:38:48.763Z,2236.00
2023-03-29T07:39:49.755Z,2250.00
2023-03-29T07:40:49.732Z,2266.00
2023-03-29T07:41:49.754Z,2274.00
2023-03-29T07:42:49.763Z,2319.00
2023-03-29T07:45:48.766Z,2384.00
2023-03-29T07:46:57.484Z,2399.00
2023-03-29T07:47:49.086Z,2632.00
2023-03-29T07:48:49.701Z,2656.00
2023-03-29T07:50:48.650Z,2555.00
2023-03-29T07:51:49.640Z,2540.00
2023-03-29T07:52:50.028Z,2552.00
2023-03-29T07:54:48.624Z,2565.00
2023-03-29T07:55:49.638Z,2559.00
2023-03-29T07:56:49.637Z,2549.00
2023-03-29T07:57:48.618Z,2537.00
2023-03-29T07:58:48.589Z,2536.00
2023-03-29T07:59:49.587Z,2530.00
2023-03-29T08:00:49.651Z,2522.00
2023-03-29T08:01:49.592Z,2530.00
2023-03-29T08:02:35.942Z,470.00
2023-03-29T08:03:48.621Z,2527.00
2023-03-29T08:04:49.609Z,2527.00
2023-03-29T08:08:48.548Z,2532.00
2023-03-29T08:09:48.515Z,2534.00
2023-03-29T08:10:49.517Z,2537.00
2023-03-29T08:14:48.484Z,2547.00
2023-03-29T08:15:48.479Z,2547.00
2023-03-29T08:17:48.511Z,2538.00
2023-03-29T08:18:49.492Z,2542.00
2023-03-29T08:19:51.229Z,2546.00
2023-03-29T08:20:49.552Z,2550.00
2023-03-29T08:24:48.506Z,2541.00
2023-03-29T08:25:48.514Z,2538.00
2023-03-29T08:27:48.522Z,2542.00
2023-03-29T08:28:49.467Z,2542.00
2023-03-29T08:30:48.561Z,2549.00
2023-03-29T08:33:48.437Z,2536.00
2023-03-29T08:34:49.434Z,2539.00
2023-03-29T08:36:48.426Z,2540.00
2023-03-29T08:37:51.061Z,2534.00
2023-03-29T08:38:49.587Z,2531.00
2023-03-29T08:39:49.623Z,2543.00
2023-03-29T08:40:49.662Z,2536.00
2023-03-29T08:41:49.719Z,2527.00
2023-03-29T08:42:50.066Z,2522.00
2023-03-29T08:44:48.827Z,2739.00
2023-03-29T08:45:51.143Z,2613.00
2023-03-29T08:46:49.941Z,2509.00
2023-03-29T08:47:50.095Z,2439.00
2023-03-29T08:48:50.001Z,2432.00
2023-03-29T08:49:50.027Z,2430.00
2023-03-29T08:50:50.070Z,2428.00
2023-03-29T08:51:50.142Z,2415.00
2023-03-29T08:52:50.204Z,2402.00
2023-03-29T08:53:50.221Z,2476.00
2023-03-29T08:54:50.250Z,2654.00
2023-03-29T08:56:49.370Z,2503.00
2023-03-29T08:57:49.560Z,2474.00
2023-03-29T08:58:50.392Z,2451.00
2023-03-29T08:59:50.432Z,2698.00
2023-03-29T09:00:50.481Z,2772.00
2023-03-29T09:01:50.583Z,2938.00
2023-03-29T09:02:50.710Z,2903.00
2023-03-29T09:03:50.712Z,2917.00
2023-03-29T09:04:50.647Z,2691.00
2023-03-29T09:05:50.664Z,2632.00
2023-03-29T09:06:50.707Z,2036.00
2023-03-29T09:07:50.789Z,2372.00
2023-03-29T09:11:49.920Z,2347.00
2023-03-29T09:12:50.974Z,2342.00
2023-03-29T09:13:51.018Z,2330.00
2023-03-29T09:14:51.018Z,2331.00
2023-03-29T09:18:50.157Z,2311.00
2023-03-29T09:19:50.283Z,2307.00
2023-03-29T09:20:51.259Z,2305.00
2023-03-29T09:21:50.272Z,2301.00
2023-03-29T09:22:51.319Z,2292.00
2023-03-29T09:23:52.460Z,2253.00
2023-03-29T09:25:28.145Z,488.00
2023-03-29T09:25:54.194Z,2252.00
2023-03-29T09:26:50.454Z,2261.00
2023-03-29T09:29:50.400Z,2269.00
2023-03-29T09:30:51.408Z,2269.00
2023-03-29T09:35:50.381Z,2299.00
2023-03-29T09:36:51.409Z,2300.00
2023-03-29T09:37:51.451Z,2303.00
2023-03-29T09:41:50.318Z,2325.00
2023-03-29T09:42:51.308Z,2322.00
2023-03-29T09:43:51.316Z,2325.00
2023-03-29T09:44:50.321Z,2343.00
2023-03-29T09:45:51.373Z,2346.00
2023-03-29T09:48:50.390Z,1665.00
2023-03-29T09:51:50.250Z,1195.00
2023-03-29T09:52:51.580Z,1153.00
2023-03-29T09:53:50.218Z,1042.00
2023-03-29T09:54:51.232Z,976.00
2023-03-29T09:55:51.253Z,893.00
2023-03-29T09:56:51.245Z,807.00
2023-03-29T09:57:51.237Z,807.00
2023-03-29T09:59:50.187Z,790.00
2023-03-29T10:00:51.251Z,779.00
2023-03-29T10:04:50.477Z,703.00
2023-03-29T10:06:50.530Z,673.00
2023-03-29T10:07:51.499Z,662.00
2023-03-29T10:08:19.019Z,527.00
2023-03-29T10:08:51.798Z,655.00
2023-03-29T10:09:51.545Z,654.00
2023-03-29T10:10:50.575Z,817.00
2023-03-29T10:11:51.628Z,920.00
2023-03-29T10:12:38.575Z,476.00
2023-03-29T10:12:51.655Z,1153.00
2023-03-29T10:13:51.732Z,1373.00
2023-03-29T10:14:53.781Z,1122.00
2023-03-29T10:15:50.821Z,1131.00
2023-03-29T10:16:51.819Z,1140.00
2023-03-29T10:18:50.789Z,1156.00
2023-03-29T10:19:51.770Z,1164.00
2023-03-29T10:20:51.752Z,1172.00
2023-03-29T10:22:50.730Z,1249.00
2023-03-29T10:23:51.739Z,1257.00
2023-03-29T10:24:51.765Z,1267.00
2023-03-29T10:28:50.678Z,1352.00
2023-03-29T10:29:51.688Z,1387.00
2023-03-29T10:30:51.705Z,1403.00
2023-03-29T10:31:51.745Z,1473.00
2023-03-29T10:35:50.692Z,1584.00
2023-03-29T10:36:52.644Z,1611.00
2023-03-29T10:37:15.790Z,472.00
2023-03-29T10:38:50.761Z,1658.00
2023-03-29T10:39:51.656Z,1681.00
2023-03-29T10:40:51.347Z,1701.00
2023-03-29T10:41:51.763Z,1743.00
2023-03-29T10:43:52.253Z,1767.00
2023-03-29T10:44:51.783Z,1774.00
2023-03-29T10:48:51.514Z,1786.00
2023-03-29T10:49:52.620Z,1791.00
2023-03-29T10:52:50.674Z,1796.00
2023-03-29T10:53:51.538Z,1800.00
2023-03-29T10:54:51.722Z,1803.00
2023-03-29T10:55:51.556Z,1799.00
2023-03-29T10:58:50.665Z,1793.00
2023-03-29T10:59:51.515Z,1792.00
2023-03-29T11:00:51.630Z,1790.00
2023-03-29T11:04:50.543Z,1817.00
2023-03-29T11:05:51.519Z,1824.00
2023-03-29T11:06:51.532Z,1827.00
2023-03-29T11:07:51.607Z,1828.00
2023-03-29T11:08:51.490Z,1824.00
2023-03-29T11:09:51.487Z,1825.00
2023-03-29T11:10:51.717Z,1826.00
2023-03-29T11:11:56.208Z,1824.00
2023-03-29T11:12:52.322Z,1827.00
2023-03-29T11:15:50.478Z,1821.00
2023-03-29T11:16:51.364Z,1822.00
2023-03-29T11:17:51.406Z,1822.00
2023-03-29T11:18:51.619Z,1816.00
2023-03-29T11:22:50.994Z,1817.00
2023-03-29T11:23:51.640Z,1823.00
2023-03-29T11:26:50.752Z,1828.00
2023-03-29T11:27:50.722Z,1829.00
2023-03-29T11:28:52.061Z,1828.00
2023-03-29T11:29:51.850Z,1831.00
2023-03-29T11:30:52.030Z,1835.00
2023-03-29T11:31:52.579Z,1836.00
2023-03-29T11:33:51.570Z,1838.00
2023-03-29T11:34:52.335Z,1842.00
2023-03-29T11:36:51.193Z,1848.00
2023-03-29T11:37:52.245Z,1844.00
2023-03-29T11:38:52.976Z,1844.00
2023-03-29T11:39:52.376Z,1842.00
2023-03-29T11:40:52.372Z,1848.00
2023-03-29T11:41:52.461Z,1850.00
2023-03-29T11:42:52.569Z,1857.00
2023-03-29T11:43:54.222Z,1860.00
2023-03-29T11:44:54.785Z,1860.00
2023-03-29T11:47:51.620Z,1859.00
2023-03-29T11:48:52.543Z,1858.00
2023-03-29T11:52:51.393Z,1848.00
2023-03-29T11:53:52.759Z,1848.00
2023-03-29T11:58:51.521Z,1866.00
2023-03-29T11:59:52.358Z,1865.00
2023-03-29T12:00:52.355Z,1867.00
2023-03-29T12:01:57.983Z,463.00
2023-03-29T12:04:51.400Z,1855.00
2023-03-29T12:05:52.304Z,1844.00
2023-03-29T12:05:57.691Z,468.00
2023-03-29T12:06:52.321Z,1844.00
2023-03-29T12:06:58.704Z,465.00
2023-03-29T12:07:58.821Z,465.00
2023-03-29T12:08:58.678Z,465.00
2023-03-29T12:12:51.949Z,577.00
2023-03-29T12:13:52.785Z,586.00
2023-03-29T12:13:57.638Z,471.00
2023-03-29T12:14:58.681Z,469.00
2023-03-29T12:15:58.638Z,469.00
2023-03-29T12:18:51.511Z,517.00
2023-03-29T12:19:52.581Z,513.00
2023-03-29T12:19:57.596Z,463.00
2023-03-29T12:20:52.806Z,514.00
2023-03-29T12:21:53.000Z,520.00
2023-03-29T12:22:57.572Z,466.00
2023-03-29T12:23:58.589Z,464.00
2023-03-29T12:24:51.736Z,596.00
2023-03-29T12:24:58.609Z,466.00
2023-03-29T12:25:52.886Z,655.00
2023-03-29T12:25:58.656Z,463.00
2023-03-29T12:26:56.196Z,792.00
2023-03-29T12:26:58.763Z,465.00
2023-03-29T12:27:52.917Z,816.00
2023-03-29T12:27:58.802Z,464.00
2023-03-29T12:28:52.788Z,816.00
2023-03-29T12:28:58.843Z,462.00
2023-03-29T12:29:58.843Z,460.00
2023-03-29T12:30:51.806Z,912.00
2023-03-29T12:30:58.885Z,462.00
2023-03-29T12:31:52.968Z,929.00
2023-03-29T12:31:59.009Z,463.00
2023-03-29T12:32:59.068Z,461.00
2023-03-29T12:33:58.980Z,462.00
2023-03-29T12:34:58.988Z,462.00
2023-03-29T12:35:51.724Z,974.00
2023-03-29T12:35:59.116Z,464.00
2023-03-29T12:37:58.095Z,463.00
2023-03-29T12:38:59.181Z,462.00
2023-03-29T12:39:59.165Z,461.00
2023-03-29T12:40:51.629Z,1268.00
2023-03-29T12:40:59.246Z,462.00
2023-03-29T12:41:51.769Z,1291.00
2023-03-29T12:42:52.600Z,1385.00
2023-03-29T12:43:52.589Z,1398.00
2023-03-29T12:44:58.421Z,463.00
2023-03-29T12:45:51.571Z,1459.00
2023-03-29T12:45:59.399Z,463.00
2023-03-29T12:46:59.400Z,460.00
2023-03-29T12:47:59.450Z,459.00
2023-03-29T12:50:58.568Z,465.00
2023-03-29T12:51:51.585Z,662.00
2023-03-29T12:51:59.577Z,461.00
2023-03-29T12:52:59.627Z,457.00
2023-03-29T12:53:59.657Z,459.00
2023-03-29T12:54:59.769Z,457.00
2023-03-29T12:55:59.791Z,455.00
2023-03-29T12:56:51.766Z,895.00
2023-03-29T12:56:59.822Z,455.00
2023-03-29T12:57:59.861Z,456.00
2023-03-29T12:58:51.765Z,988.00
2023-03-29T12:58:59.892Z,455.00
2023-03-29T12:59:52.523Z,1023.00
2023-03-29T12:59:59.909Z,456.00
2023-03-29T13:00:52.724Z,1055.00
2023-03-29T13:00:59.999Z,453.00
2023-03-29T13:01:52.720Z,1067.00
2023-03-29T13:02:00.161Z,452.00
2023-03-29T13:02:52.795Z,1238.00
2023-03-29T13:03:00.136Z,450.00
2023-03-29T13:03:52.784Z,1154.00
2023-03-29T13:04:00.016Z,452.00
2023-03-29T13:04:52.863Z,1149.00
2023-03-29T13:05:00.174Z,455.00
2023-03-29T13:05:52.847Z,1165.00
2023-03-29T13:06:54.158Z,1183.00
2023-03-29T13:07:52.922Z,1190.00
2023-03-29T13:07:59.178Z,453.00
2023-03-29T13:08:52.924Z,1196.00
2023-03-29T13:09:00.234Z,461.00
2023-03-29T13:09:52.937Z,1207.00
2023-03-29T13:10:00.268Z,451.00
2023-03-29T13:10:52.954Z,1228.00
2023-03-29T13:11:00.266Z,455.00
2023-03-29T13:12:00.254Z,455.00
2023-03-29T13:14:59.268Z,452.00
2023-03-29T13:16:00.484Z,463.00
2023-03-29T13:16:52.098Z,1243.00
2023-03-29T13:17:08.611Z,457.00
2023-03-29T13:17:53.235Z,1251.00
2023-03-29T13:18:00.462Z,456.00
2023-03-29T13:18:53.246Z,1267.00
2023-03-29T13:19:59.366Z,454.00
2023-03-29T13:21:00.346Z,453.00
2023-03-29T13:21:59.317Z,450.00
2023-03-29T13:23:00.347Z,447.00
2023-03-29T13:23:52.589Z,1288.00
2023-03-29T13:26:52.649Z,1321.00
2023-03-29T13:26:59.287Z,449.00
2023-03-29T13:28:00.281Z,452.00
2023-03-29T13:28:52.746Z,1335.00
2023-03-29T13:29:53.770Z,1345.00
2023-03-29T13:30:54.066Z,1367.00
2023-03-29T13:30:59.337Z,454.00
2023-03-29T13:31:53.837Z,1378.00
2023-03-29T13:31:59.243Z,450.00
2023-03-29T13:32:53.915Z,1379.00
2023-03-29T13:33:00.307Z,449.00
2023-03-29T13:33:56.992Z,1386.00
2023-03-29T13:34:00.237Z,467.00
2023-03-29T13:35:00.228Z,456.00
2023-03-29T13:36:00.452Z,455.00
2023-03-29T13:37:52.892Z,1425.00
2023-03-29T13:38:53.888Z,1434.00
2023-03-29T13:39:54.003Z,1445.00
2023-03-29T13:39:59.211Z,470.00
2023-03-29T13:40:59.193Z,466.00
2023-03-29T13:42:00.174Z,459.00
2023-03-29T13:42:52.848Z,1462.00
2023-03-29T13:43:00.329Z,456.00
2023-03-29T13:43:53.896Z,1460.00
2023-03-29T13:44:00.188Z,456.00
2023-03-29T13:44:59.188Z,455.00
2023-03-29T13:46:00.368Z,454.00